createdAt,value
2022-08-29T00:02:19.649Z,53.30
2022-08-29T00:04:47.546Z,52.50
2022-08-29T00:07:16.764Z,52.60
2022-08-29T00:09:44.644Z,53.40
2022-08-29T00:12:12.550Z,53.60
2022-08-29T00:14:40.459Z,53.00
2022-08-29T00:17:08.334Z,53.20
2022-08-29T00:19:36.244Z,51.80
2022-08-29T00:22:04.096Z,51.20
2022-08-29T00:24:33.327Z,51.70
2022-08-29T00:27:01.927Z,51.00
2022-08-29T00:29:29.820Z,50.80
2022-08-29T00:31:57.767Z,51.00
2022-08-29T00:34:25.691Z,50.80
2022-08-29T00:36:55.114Z,50.50
2022-08-29T00:39:23.153Z,50.40
2022-08-29T00:41:53.004Z,50.00
2022-08-29T00:44:20.935Z,49.60
2022-08-29T00:46:50.599Z,50.10
2022-08-29T00:49:26.606Z,49.50
2022-08-29T00:51:54.450Z,49.90
2022-08-29T00:54:22.363Z,50.80
2022-08-29T00:56:50.197Z,49.40
2022-08-29T00:59:20.501Z,50.20
2022-08-29T01:01:48.407Z,49.70
2022-08-29T01:04:23.853Z,48.70
2022-08-29T01:06:52.247Z,48.70
2022-08-29T01:09:21.023Z,49.20
2022-08-29T01:12:06.275Z,49.40
2022-08-29T01:14:38.359Z,49.40
2022-08-29T01:17:07.237Z,50.40
2022-08-29T01:19:40.579Z,50.60
2022-08-29T01:22:11.115Z,50.70
2022-08-29T01:24:41.282Z,51.10
2022-08-29T01:27:09.248Z,51.40
2022-08-29T01:29:37.246Z,52.60
2022-08-29T01:32:05.539Z,52.50
2022-08-29T01:34:33.469Z,53.10
2022-08-29T01:37:01.787Z,53.10
2022-08-29T01:39:30.497Z,52.30
2022-08-29T01:42:00.147Z,53.60
2022-08-29T01:44:28.034Z,53.10
2022-08-29T01:47:01.824Z,53.00
2022-08-29T01:49:31.311Z,53.00
2022-08-29T01:51:59.194Z,53.70
2022-08-29T01:54:27.100Z,53.50
2022-08-29T01:56:55.068Z,53.60
2022-08-29T01:59:25.534Z,53.70
2022-08-29T02:01:55.434Z,53.70
2022-08-29T02:04:23.528Z,53.90
2022-08-29T02:06:51.766Z,54.40
2022-08-29T02:09:19.657Z,54.20
2022-08-29T02:11:48.294Z,55.10
2022-08-29T02:14:18.978Z,54.40
2022-08-29T02:16:49.103Z,54.20
2022-08-29T02:19:17.210Z,55.30
2022-08-29T02:21:45.100Z,56.30
2022-08-29T02:24:26.572Z,55.30
2022-08-29T02:26:54.603Z,54.30
2022-08-29T02:29:23.171Z,54.40
2022-08-29T02:31:52.468Z,55.10
2022-08-29T02:34:20.580Z,55.30
2022-08-29T02:36:49.070Z,54.50
2022-08-29T02:39:17.398Z,55.30
2022-08-29T02:41:45.292Z,56.20
2022-08-29T02:44:13.195Z,56.40
2022-08-29T02:46:41.071Z,57.00
2022-08-29T02:49:10.404Z,56.00
2022-08-29T02:51:38.278Z,56.20
2022-08-29T02:54:06.207Z,56.10
2022-08-29T02:56:34.081Z,55.40
2022-08-29T02:59:02.157Z,55.20
2022-08-29T03:01:31.284Z,56.00
2022-08-29T03:03:59.312Z,56.80
2022-08-29T03:06:28.543Z,57.50
2022-08-29T03:08:56.613Z,56.90
2022-08-29T03:11:24.754Z,56.60
2022-08-29T03:13:52.613Z,57.00
2022-08-29T03:16:25.640Z,56.30
2022-08-29T03:18:53.561Z,55.70
2022-08-29T03:21:23.122Z,55.90
2022-08-29T03:23:52.359Z,55.90
2022-08-29T03:26:20.425Z,56.30
2022-08-29T03:28:48.293Z,55.70
2022-08-29T03:31:16.258Z,55.60
2022-08-29T03:33:44.194Z,55.30
2022-08-29T03:36:14.272Z,55.60
2022-08-29T03:38:43.465Z,55.90
2022-08-29T03:41:12.770Z,55.50
2022-08-29T03:43:40.669Z,55.30
2022-08-29T03:46:08.552Z,55.90
2022-08-29T03:48:36.455Z,56.20
2022-08-29T03:51:04.387Z,58.60
2022-08-29T03:53:32.955Z,57.00
2022-08-29T03:56:00.864Z,56.40
2022-08-29T03:58:30.120Z,56.00
2022-08-29T04:00:58.947Z,55.80
2022-08-29T04:03:31.355Z,57.50
2022-08-29T04:05:59.675Z,59.10
2022-08-29T04:08:27.576Z,58.60
2022-08-29T04:10:55.470Z,58.60
2022-08-29T04:13:23.409Z,57.10
2022-08-29T04:15:53.604Z,56.60
2022-08-29T04:18:22.397Z,56.40
2022-08-29T04:20:50.837Z,57.00
2022-08-29T04:23:18.763Z,56.90
2022-08-29T04:25:46.725Z,56.60
2022-08-29T04:28:14.897Z,56.60
2022-08-29T04:30:51.198Z,56.30
2022-08-29T04:33:22.838Z,57.10
2022-08-29T04:35:50.983Z,57.00
2022-08-29T04:38:18.857Z,57.00
2022-08-29T04:40:46.759Z,56.70
2022-08-29T04:43:14.933Z,56.80
2022-08-29T04:45:42.838Z,58.30
2022-08-29T04:48:11.046Z,58.50
2022-08-29T04:50:40.428Z,58.60
2022-08-29T04:53:08.269Z,57.60
2022-08-29T04:55:36.138Z,57.30
2022-08-29T04:58:04.541Z,57.90
2022-08-29T05:00:33.319Z,58.40
2022-08-29T05:03:01.279Z,57.30
2022-08-29T05:05:29.198Z,57.70
2022-08-29T05:07:58.456Z,58.20
2022-08-29T05:10:26.471Z,58.20
2022-08-29T05:12:54.415Z,57.80
2022-08-29T05:15:22.436Z,57.90
2022-08-29T05:17:50.396Z,57.50
2022-08-29T05:20:18.283Z,58.00
2022-08-29T05:22:46.154Z,57.50
2022-08-29T05:25:18.198Z,57.70
2022-08-29T05:27:46.650Z,58.20
2022-08-29T05:30:19.932Z,58.60
2022-08-29T05:33:03.236Z,59.30
2022-08-29T05:35:31.113Z,58.30
2022-08-29T05:37:58.974Z,58.40
2022-08-29T05:40:28.743Z,58.70
2022-08-29T05:42:56.663Z,58.80
2022-08-29T05:45:24.554Z,58.60
2022-08-29T05:47:52.436Z,57.60
2022-08-29T05:50:20.381Z,56.70
2022-08-29T05:52:48.285Z,55.30
2022-08-29T05:55:16.244Z,55.20
2022-08-29T05:57:45.847Z,55.70
2022-08-29T06:00:14.111Z,55.70
2022-08-29T06:02:43.874Z,55.20
2022-08-29T06:05:12.101Z,54.00
2022-08-29T06:07:39.963Z,53.80
2022-08-29T06:10:08.994Z,53.80
2022-08-29T06:12:37.614Z,53.20
2022-08-29T06:15:07.859Z,52.70
2022-08-29T06:17:35.866Z,51.90
2022-08-29T06:20:04.354Z,51.10
2022-08-29T06:22:32.240Z,50.50
2022-08-29T06:25:21.798Z,50.20
2022-08-29T06:27:54.368Z,49.40
2022-08-29T06:30:23.663Z,48.60
2022-08-29T06:32:51.560Z,48.50
2022-08-29T06:35:19.626Z,47.80
2022-08-29T06:37:47.685Z,47.80
2022-08-29T06:40:15.933Z,48.30
2022-08-29T06:42:44.025Z,47.10
2022-08-29T06:45:15.315Z,47.90
2022-08-29T06:47:49.567Z,47.30
2022-08-29T06:50:23.362Z,47.00
2022-08-29T06:53:05.425Z,47.00
2022-08-29T06:55:43.997Z,46.90
2022-08-29T06:58:12.870Z,46.10
2022-08-29T07:00:41.218Z,46.30
2022-08-29T07:03:10.679Z,46.40
2022-08-29T07:05:38.667Z,45.40
2022-08-29T07:08:06.541Z,45.10
2022-08-29T07:10:34.455Z,45.30
2022-08-29T07:13:02.306Z,44.40
2022-08-29T07:15:30.261Z,46.60
2022-08-29T07:18:00.127Z,44.20
2022-08-29T07:20:29.537Z,44.80
2022-08-29T07:22:57.799Z,43.80
2022-08-29T07:25:27.682Z,44.90
2022-08-29T07:27:55.551Z,43.50
2022-08-29T07:30:23.575Z,41.80
2022-08-29T07:32:51.480Z,43.70
2022-08-29T07:35:29.589Z,45.10
2022-08-29T07:38:01.165Z,43.00
2022-08-29T07:40:29.210Z,43.00
2022-08-29T07:42:57.194Z,42.40
2022-08-29T07:45:25.149Z,42.50
2022-08-29T07:47:53.110Z,42.30
2022-08-29T07:50:21.017Z,41.70
2022-08-29T07:52:48.898Z,41.60
2022-08-29T07:55:18.169Z,42.40
2022-08-29T07:57:48.460Z,42.00
2022-08-29T08:00:16.437Z,42.10
2022-08-29T08:02:44.335Z,40.90
2022-08-29T08:05:12.256Z,41.00
2022-08-29T08:07:40.427Z,40.90
2022-08-29T08:10:09.177Z,39.60
2022-08-29T08:12:38.415Z,40.10
2022-08-29T08:15:06.843Z,41.00
2022-08-29T08:17:34.696Z,40.30
2022-08-29T08:20:02.908Z,39.30
2022-08-29T08:22:30.774Z,39.50
2022-08-29T08:24:58.684Z,39.30
2022-08-29T08:27:26.562Z,39.00
2022-08-29T08:29:59.890Z,39.50
2022-08-29T08:32:32.556Z,41.50
2022-08-29T08:35:01.812Z,40.70
2022-08-29T08:37:29.687Z,39.40
2022-08-29T08:39:58.274Z,39.20
2022-08-29T08:42:29.298Z,38.00
2022-08-29T08:45:05.711Z,38.70
2022-08-29T08:47:34.130Z,38.90
2022-08-29T08:50:02.517Z,38.10
2022-08-29T08:52:32.952Z,38.60
2022-08-29T08:55:03.055Z,39.90
2022-08-29T08:57:31.366Z,38.80
2022-08-29T08:59:59.625Z,38.60
2022-08-29T09:02:42.971Z,40.30
2022-08-29T09:05:19.613Z,38.80
2022-08-29T09:07:49.448Z,38.70
2022-08-29T09:10:19.940Z,38.80
2022-08-29T09:12:51.592Z,39.00
2022-08-29T09:15:20.872Z,38.10
2022-08-29T09:17:51.091Z,37.70
2022-08-29T09:20:19.871Z,38.10
2022-08-29T09:22:51.008Z,38.30
2022-08-29T09:25:18.876Z,37.30
2022-08-29T09:27:49.865Z,36.80
2022-08-29T09:30:18.669Z,36.70
2022-08-29T09:32:54.399Z,36.50
2022-08-29T09:35:24.457Z,36.50
2022-08-29T09:38:02.371Z,36.00
2022-08-29T09:40:44.021Z,35.80
2022-08-29T09:43:16.761Z,36.50
2022-08-29T09:45:47.185Z,35.70
2022-08-29T09:48:17.485Z,36.40
2022-08-29T09:50:45.542Z,36.40
2022-08-29T09:53:16.631Z,36.50
2022-08-29T09:55:52.776Z,36.50
2022-08-29T09:58:27.928Z,35.00
2022-08-29T10:01:00.350Z,35.60
2022-08-29T10:03:30.109Z,36.50
2022-08-29T10:06:06.356Z,37.40
2022-08-29T10:08:35.993Z,36.30
2022-08-29T10:11:06.289Z,36.50
2022-08-29T10:13:39.387Z,36.30
2022-08-29T10:16:10.387Z,37.40
2022-08-29T10:18:43.062Z,35.80
2022-08-29T10:21:17.744Z,34.50
2022-08-29T10:23:49.250Z,34.80
2022-08-29T10:26:21.802Z,35.80
2022-08-29T10:28:51.659Z,37.00
2022-08-29T10:31:20.933Z,35.40
2022-08-29T10:34:06.790Z,34.80
2022-08-29T10:36:36.688Z,34.70
2022-08-29T10:39:07.160Z,35.20
2022-08-29T10:41:35.619Z,35.80
2022-08-29T10:44:08.563Z,34.40
2022-08-29T10:46:40.398Z,33.00
2022-08-29T10:49:09.676Z,32.70
2022-08-29T10:51:40.309Z,32.80
2022-08-29T10:54:11.420Z,31.50
2022-08-29T10:56:40.382Z,31.80
2022-08-29T10:59:08.971Z,30.70
2022-08-29T11:01:38.168Z,31.30
2022-08-29T11:04:08.028Z,33.50
2022-08-29T11:09:08.723Z,32.30
2022-08-29T11:11:37.528Z,30.60
2022-08-29T11:14:06.548Z,30.80
2022-08-29T11:16:35.798Z,32.90
2022-08-29T11:19:04.186Z,31.60
2022-08-29T11:21:33.511Z,31.20
2022-08-29T11:24:05.936Z,29.70
2022-08-29T11:26:42.239Z,29.20
2022-08-29T11:29:13.613Z,31.90
2022-08-29T11:31:44.589Z,33.20
2022-08-29T11:34:18.810Z,30.90
2022-08-29T11:36:50.462Z,33.00
2022-08-29T11:39:31.063Z,29.60
2022-08-29T11:42:03.850Z,29.70
2022-08-29T11:44:32.678Z,30.90
2022-08-29T11:47:00.704Z,29.70
2022-08-29T11:49:45.364Z,28.00
2022-08-29T11:52:17.706Z,28.40
2022-08-29T11:55:09.926Z,30.20
2022-08-29T11:57:51.184Z,30.20
2022-08-29T12:00:29.877Z,28.80
2022-08-29T12:02:57.775Z,29.80
2022-08-29T12:05:43.439Z,31.50
2022-08-29T12:08:35.478Z,31.30
2022-08-29T12:11:01.597Z,29.30
2022-08-29T12:13:48.246Z,28.10
2022-08-29T12:16:17.906Z,30.00
2022-08-29T12:18:46.762Z,28.10
2022-08-29T12:21:33.456Z,28.50
2022-08-29T12:24:01.349Z,28.10
2022-08-29T12:26:38.835Z,28.50
2022-08-29T12:29:10.185Z,27.50
2022-08-29T12:31:51.664Z,28.40
2022-08-29T12:34:30.374Z,29.30
2022-08-29T12:37:02.643Z,28.70
2022-08-29T12:39:36.873Z,27.70
2022-08-29T12:42:16.913Z,30.50
2022-08-29T12:44:45.291Z,28.70
2022-08-29T12:47:15.818Z,29.10
2022-08-29T12:49:48.502Z,28.40
2022-08-29T12:52:21.599Z,27.30
2022-08-29T12:54:53.184Z,28.30
2022-08-29T12:57:24.674Z,30.70
2022-08-29T12:59:53.761Z,32.20
2022-08-29T13:02:28.122Z,31.40
2022-08-29T13:04:56.417Z,30.00
2022-08-29T13:07:24.736Z,29.20
2022-08-29T13:09:53.193Z,28.10
2022-08-29T13:12:22.705Z,29.10
2022-08-29T13:14:51.671Z,31.80
2022-08-29T13:17:20.541Z,29.10
2022-08-29T13:20:07.156Z,28.30
2022-08-29T13:22:36.478Z,27.40
2022-08-29T13:25:04.788Z,27.50
2022-08-29T13:27:32.663Z,28.50
2022-08-29T13:30:00.713Z,27.60
2022-08-29T13:32:28.561Z,29.70
2022-08-29T13:34:59.957Z,28.90
2022-08-29T13:37:31.907Z,29.90
2022-08-29T13:40:01.279Z,29.40
2022-08-29T13:42:30.188Z,29.00
2022-08-29T13:45:09.182Z,27.50
2022-08-29T13:47:41.515Z,28.20
2022-08-29T13:50:10.155Z,27.40
2022-08-29T13:52:38.209Z,28.80
2022-08-29T13:55:08.177Z,28.00
2022-08-29T13:57:36.090Z,28.20
2022-08-29T14:00:05.589Z,28.00
2022-08-29T14:02:33.838Z,27.90
2022-08-29T14:05:01.875Z,30.50
2022-08-29T14:07:31.113Z,28.40
2022-08-29T14:09:59.079Z,27.90
2022-08-29T14:12:33.756Z,27.80
2022-08-29T14:15:05.276Z,27.50
2022-08-29T14:17:36.832Z,28.00
2022-08-29T14:20:06.207Z,28.10
2022-08-29T14:22:34.106Z,28.10
2022-08-29T14:25:02.982Z,29.30
2022-08-29T14:27:32.293Z,29.70
2022-08-29T14:30:00.569Z,28.30
2022-08-29T14:32:28.499Z,28.30
2022-08-29T14:34:56.427Z,28.20
2022-08-29T14:37:24.540Z,27.90
2022-08-29T14:39:52.404Z,27.70
2022-08-29T14:42:20.861Z,28.10
2022-08-29T14:44:50.155Z,27.90
2022-08-29T14:47:17.997Z,28.30
2022-08-29T14:49:45.896Z,29.00
2022-08-29T14:52:15.226Z,28.60
2022-08-29T14:54:43.696Z,29.10
2022-08-29T14:57:12.364Z,30.70
2022-08-29T14:59:40.638Z,29.70
2022-08-29T15:02:10.286Z,28.50
2022-08-29T15:04:38.274Z,30.80
2022-08-29T15:07:06.160Z,28.30
2022-08-29T15:09:34.104Z,28.10
2022-08-29T15:12:01.976Z,29.60
2022-08-29T15:14:29.914Z,31.10
2022-08-29T15:16:57.802Z,29.20
2022-08-29T15:22:14.942Z,29.10
2022-08-29T15:24:42.836Z,28.50
2022-08-29T15:27:10.693Z,28.30
2022-08-29T15:29:40.593Z,29.80
2022-08-29T15:32:08.492Z,31.00
2022-08-29T15:34:37.858Z,29.40
2022-08-29T15:37:05.811Z,32.80
2022-08-29T15:39:33.803Z,30.30
2022-08-29T15:42:02.632Z,30.10
2022-08-29T15:44:30.513Z,30.40
2022-08-29T15:46:58.511Z,30.40
2022-08-29T15:49:26.474Z,28.40
2022-08-29T15:51:55.694Z,28.70
2022-08-29T15:54:23.829Z,29.20
2022-08-29T15:56:51.745Z,29.70
2022-08-29T15:59:30.963Z,30.50
2022-08-29T16:02:10.254Z,30.20
2022-08-29T16:04:38.398Z,29.20
2022-08-29T16:07:07.685Z,29.60
2022-08-29T16:09:35.656Z,28.90
2022-08-29T16:12:03.654Z,29.60
2022-08-29T16:14:58.974Z,28.90
2022-08-29T16:17:19.378Z,30.30
2022-08-29T16:19:47.260Z,29.80
2022-08-29T16:22:16.514Z,30.50
2022-08-29T16:24:44.382Z,29.70
2022-08-29T16:27:12.221Z,29.50
2022-08-29T16:29:40.137Z,29.80
2022-08-29T16:32:09.003Z,29.80
2022-08-29T16:34:36.899Z,30.30
2022-08-29T16:37:04.765Z,31.80
2022-08-29T16:39:34.046Z,29.80
2022-08-29T16:42:01.917Z,30.10
2022-08-29T16:44:31.799Z,32.70
2022-08-29T16:46:59.659Z,32.50
2022-08-29T16:49:27.554Z,32.10
2022-08-29T16:51:55.426Z,31.10
2022-08-29T16:54:23.336Z,32.00
2022-08-29T16:56:52.862Z,31.80
2022-08-29T16:59:20.792Z,31.40
2022-08-29T17:01:49.343Z,31.10
2022-08-29T17:04:18.513Z,31.30
2022-08-29T17:06:48.084Z,32.80
2022-08-29T17:09:14.956Z,31.30
2022-08-29T17:11:41.697Z,31.50
2022-08-29T17:14:09.953Z,31.30
2022-08-29T17:16:37.933Z,31.90
2022-08-29T17:19:06.453Z,32.20
2022-08-29T17:21:34.361Z,33.10
2022-08-29T17:24:03.387Z,31.40
2022-08-29T17:26:31.310Z,31.40
2022-08-29T17:28:59.259Z,32.50
2022-08-29T17:31:28.576Z,32.30
2022-08-29T17:33:57.053Z,32.80
2022-08-29T17:36:25.038Z,33.20
2022-08-29T17:38:52.930Z,34.00
2022-08-29T17:41:21.210Z,34.40
2022-08-29T17:43:49.909Z,34.70
2022-08-29T17:46:18.455Z,35.00
2022-08-29T17:48:47.776Z,35.90
2022-08-29T17:51:16.014Z,36.50
2022-08-29T17:53:45.795Z,36.60
2022-08-29T17:56:14.550Z,36.80
2022-08-29T17:58:42.452Z,37.90
2022-08-29T18:01:15.891Z,38.50
2022-08-29T18:03:44.817Z,38.90
2022-08-29T18:06:14.997Z,38.90
2022-08-29T18:08:46.944Z,39.90
2022-08-29T18:11:20.265Z,40.20
2022-08-29T18:13:48.308Z,40.20
2022-08-29T18:16:16.281Z,40.40
2022-08-29T18:18:44.424Z,40.20
2022-08-29T18:21:16.455Z,40.10
2022-08-29T18:23:47.502Z,41.90
2022-08-29T18:26:15.446Z,42.70
2022-08-29T18:28:43.323Z,42.90
2022-08-29T18:31:11.803Z,41.90
2022-08-29T18:33:59.973Z,42.60
2022-08-29T18:36:28.924Z,42.30
2022-08-29T18:39:01.263Z,42.60
2022-08-29T18:41:29.722Z,43.20
2022-08-29T18:43:59.010Z,44.20
2022-08-29T18:46:26.968Z,44.40
2022-08-29T18:48:55.573Z,43.80
2022-08-29T18:51:23.438Z,43.10
2022-08-29T18:53:51.344Z,44.50
2022-08-29T18:56:20.959Z,43.70
2022-08-29T18:58:54.684Z,44.10
2022-08-29T19:01:28.346Z,43.80
2022-08-29T19:03:56.805Z,43.40
2022-08-29T19:06:25.806Z,42.10
2022-08-29T19:08:53.970Z,41.70
2022-08-29T19:11:23.290Z,41.80
2022-08-29T19:13:52.386Z,41.30
2022-08-29T19:16:20.946Z,41.70
2022-08-29T19:18:48.894Z,42.00
2022-08-29T19:21:15.789Z,41.70
2022-08-29T19:23:45.481Z,42.20
2022-08-29T19:26:14.265Z,42.30
2022-08-29T19:28:43.547Z,41.50
2022-08-29T19:31:11.489Z,42.20
2022-08-29T19:33:46.018Z,43.90
2022-08-29T19:36:13.972Z,43.90
2022-08-29T19:38:42.343Z,43.20
2022-08-29T19:41:10.392Z,43.70
2022-08-29T19:43:40.245Z,43.30
2022-08-29T19:46:11.215Z,44.80
2022-08-29T19:48:42.505Z,44.50
2022-08-29T19:51:10.730Z,46.10
2022-08-29T19:53:41.712Z,44.70
2022-08-29T19:56:09.675Z,44.30
2022-08-29T19:58:38.596Z,44.80
2022-08-29T20:01:07.148Z,44.90
2022-08-29T20:03:37.158Z,43.90
2022-08-29T20:06:06.992Z,42.70
2022-08-29T20:08:36.885Z,42.50
2022-08-29T20:11:06.542Z,43.20
2022-08-29T20:13:35.828Z,43.10
2022-08-29T20:16:12.152Z,43.50
2022-08-29T20:18:42.048Z,43.60
2022-08-29T20:21:10.440Z,45.10
2022-08-29T20:23:38.934Z,44.20
2022-08-29T20:26:15.153Z,43.40
2022-08-29T20:28:43.088Z,43.20
2022-08-29T20:31:10.993Z,43.00
2022-08-29T20:33:41.346Z,42.30
2022-08-29T20:36:28.709Z,42.30
2022-08-29T20:38:56.639Z,42.80
2022-08-29T20:41:24.513Z,41.70
2022-08-29T20:43:52.411Z,41.70
2022-08-29T20:46:20.348Z,41.70
2022-08-29T20:48:48.329Z,40.20
2022-08-29T20:51:17.566Z,40.90
2022-08-29T20:53:45.539Z,40.10
2022-08-29T20:56:13.419Z,40.80
2022-08-29T20:58:41.476Z,41.00
2022-08-29T21:01:09.442Z,42.00
2022-08-29T21:03:54.953Z,41.30
2022-08-29T21:06:24.181Z,41.00
2022-08-29T21:08:52.641Z,41.10
2022-08-29T21:11:20.793Z,42.20
2022-08-29T21:13:53.011Z,41.40
2022-08-29T21:16:21.388Z,43.10
2022-08-29T21:18:51.219Z,42.30
2022-08-29T21:21:21.949Z,42.50
2022-08-29T21:23:53.402Z,41.10
2022-08-29T21:26:21.458Z,41.20
2022-08-29T21:28:49.342Z,40.30
2022-08-29T21:31:17.306Z,39.40
2022-08-29T21:33:45.621Z,40.60
2022-08-29T21:36:13.601Z,39.30
2022-08-29T21:38:41.845Z,40.00
2022-08-29T21:41:12.000Z,39.70
2022-08-29T21:43:40.032Z,38.70
2022-08-29T21:46:14.483Z,39.50
2022-08-29T21:48:42.412Z,39.50
2022-08-29T21:51:10.339Z,39.30
2022-08-29T21:53:40.471Z,40.10
2022-08-29T21:56:10.974Z,38.80
2022-08-29T21:58:38.895Z,38.30
2022-08-29T22:01:06.948Z,39.10
2022-08-29T22:03:34.830Z,39.00
2022-08-29T22:06:04.312Z,38.70
2022-08-29T22:08:32.246Z,38.60
2022-08-29T22:11:00.714Z,39.20
2022-08-29T22:13:32.574Z,38.90
2022-08-29T22:16:18.118Z,39.20
2022-08-29T22:18:49.311Z,38.60
2022-08-29T22:21:17.556Z,39.20
2022-08-29T22:23:45.673Z,38.30
2022-08-29T22:26:13.687Z,38.30
2022-08-29T22:28:43.464Z,38.80
2022-08-29T22:31:11.403Z,38.60
2022-08-29T22:33:39.610Z,39.00
2022-08-29T22:36:07.590Z,39.30
2022-08-29T22:38:35.484Z,38.90
2022-08-29T22:41:03.391Z,39.00
2022-08-29T22:43:31.560Z,38.80
2022-08-29T22:46:01.006Z,39.10
2022-08-29T22:48:28.968Z,39.50
2022-08-29T22:50:58.212Z,38.60
2022-08-29T22:53:26.460Z,38.70
2022-08-29T22:55:54.468Z,39.90
2022-08-29T22:58:22.325Z,39.70
2022-08-29T23:00:50.239Z,38.70
2022-08-29T23:03:20.015Z,39.00
2022-08-29T23:05:48.259Z,39.70
2022-08-29T23:08:17.161Z,38.90
2022-08-29T23:10:49.118Z,39.10
2022-08-29T23:13:17.571Z,39.00
2022-08-29T23:15:48.356Z,38.70
2022-08-29T23:18:17.836Z,39.10
2022-08-29T23:20:47.172Z,39.10
2022-08-29T23:23:15.148Z,38.80
2022-08-29T23:25:43.310Z,38.70
2022-08-29T23:28:11.292Z,39.80
2022-08-29T23:30:39.245Z,39.70
2022-08-29T23:33:07.097Z,39.00
2022-08-29T23:35:36.978Z,39.70
2022-08-29T23:38:07.879Z,39.80
2022-08-29T23:40:36.012Z,39.20
2022-08-29T23:43:04.778Z,39.30
2022-08-29T23:45:32.727Z,39.20
2022-08-29T23:48:00.605Z,40.40
2022-08-29T23:50:28.539Z,39.80
2022-08-29T23:52:56.391Z,39.80
2022-08-29T23:55:25.765Z,39.60
2022-08-29T23:57:53.714Z,39.80
